sensor_id;sensor_type;location;lat;lon;timestamp;P1;durP1;ratioP1;P2;durP2;ratioP2
950;SDS011;462;48.758;9.256;2022-09-03T00:04:23;2.87;;;2.20;;
950;SDS011;462;48.758;9.256;2022-09-03T00:12:31;3.10;;;2.80;;
950;SDS011;462;48.758;9.256;2022-09-03T00:20:39;2.90;;;2.20;;
950;SDS011;462;48.758;9.256;2022-09-03T00:28:45;2.93;;;2.30;;
950;SDS011;462;48.758;9.256;2022-09-03T00:36:50;2.80;;;2.33;;
950;SDS011;462;48.758;9.256;2022-09-03T00:44:56;2.47;;;2.10;;
950;SDS011;462;48.758;9.256;2022-09-03T00:53:06;2.77;;;2.30;;
950;SDS011;462;48.758;9.256;2022-09-03T01:01:15;4.00;;;2.30;;
950;SDS011;462;48.758;9.256;2022-09-03T01:09:29;3.07;;;2.30;;
950;SDS011;462;48.758;9.256;2022-09-03T01:17:48;2.30;;;2.10;;
950;SDS011;462;48.758;9.256;2022-09-03T01:26:00;2.70;;;2.50;;
950;SDS011;462;48.758;9.256;2022-09-03T01:34:14;2.67;;;1.63;;
950;SDS011;462;48.758;9.256;2022-09-03T01:42:28;2.17;;;2.00;;
950;SDS011;462;48.758;9.256;2022-09-03T01:50:37;3.60;;;1.90;;
950;SDS011;462;48.758;9.256;2022-09-03T01:58:44;2.03;;;1.93;;
950;SDS011;462;48.758;9.256;2022-09-03T02:06:57;2.33;;;2.13;;
950;SDS011;462;48.758;9.256;2022-09-03T02:15:01;2.83;;;2.00;;
950;SDS011;462;48.758;9.256;2022-09-03T02:23:07;2.10;;;1.90;;
950;SDS011;462;48.758;9.256;2022-09-03T02:31:09;3.67;;;2.63;;
950;SDS011;462;48.758;9.256;2022-09-03T02:39:14;4.00;;;2.40;;
950;SDS011;462;48.758;9.256;2022-09-03T02:47:16;2.80;;;2.50;;
950;SDS011;462;48.758;9.256;2022-09-03T02:55:21;4.10;;;2.13;;
950;SDS011;462;48.758;9.256;2022-09-03T03:03:23;5.23;;;2.27;;
950;SDS011;462;48.758;9.256;2022-09-03T03:11:27;2.70;;;2.50;;
950;SDS011;462;48.758;9.256;2022-09-03T03:19:30;2.60;;;2.20;;
950;SDS011;462;48.758;9.256;2022-09-03T03:27:34;2.80;;;2.23;;
950;SDS011;462;48.758;9.256;2022-09-03T03:35:41;4.30;;;2.37;;
950;SDS011;462;48.758;9.256;2022-09-03T03:43:45;2.70;;;2.50;;
950;SDS011;462;48.758;9.256;2022-09-03T03:51:47;2.60;;;2.17;;
950;SDS011;462;48.758;9.256;2022-09-03T03:59:51;2.50;;;2.30;;
950;SDS011;462;48.758;9.256;2022-09-03T04:07:54;2.73;;;2.53;;
950;SDS011;462;48.758;9.256;2022-09-03T04:16:01;3.40;;;3.10;;
950;SDS011;462;48.758;9.256;2022-09-03T04:24:04;6.07;;;2.63;;
950;SDS011;462;48.758;9.256;2022-09-03T04:32:08;3.33;;;2.57;;
950;SDS011;462;48.758;9.256;2022-09-03T04:40:28;2.73;;;2.53;;
950;SDS011;462;48.758;9.256;2022-09-03T04:48:33;3.43;;;3.13;;
950;SDS011;462;48.758;9.256;2022-09-03T04:56:37;3.73;;;3.10;;
950;SDS011;462;48.758;9.256;2022-09-03T05:04:41;3.43;;;3.17;;
950;SDS011;462;48.758;9.256;2022-09-03T05:12:44;3.83;;;3.40;;
950;SDS011;462;48.758;9.256;2022-09-03T05:20:57;3.00;;;2.70;;
950;SDS011;462;48.758;9.256;2022-09-03T05:29:01;6.13;;;3.40;;
950;SDS011;462;48.758;9.256;2022-09-03T05:37:06;3.50;;;3.20;;
950;SDS011;462;48.758;9.256;2022-09-03T05:45:09;3.30;;;3.07;;
950;SDS011;462;48.758;9.256;2022-09-03T05:53:13;3.53;;;3.23;;
950;SDS011;462;48.758;9.256;2022-09-03T06:01:17;4.07;;;3.20;;
950;SDS011;462;48.758;9.256;2022-09-03T06:09:22;4.13;;;3.50;;
950;SDS011;462;48.758;9.256;2022-09-03T06:17:25;3.63;;;3.33;;
950;SDS011;462;48.758;9.256;2022-09-03T06:25:28;3.17;;;2.80;;
950;SDS011;462;48.758;9.256;2022-09-03T06:33:32;3.10;;;2.90;;
950;SDS011;462;48.758;9.256;2022-09-03T06:41:36;4.80;;;3.43;;
950;SDS011;462;48.758;9.256;2022-09-03T06:49:39;4.07;;;3.00;;
950;SDS011;462;48.758;9.256;2022-09-03T06:57:43;5.70;;;3.13;;
950;SDS011;462;48.758;9.256;2022-09-03T07:05:45;3.33;;;3.03;;
950;SDS011;462;48.758;9.256;2022-09-03T07:13:49;3.13;;;2.93;;
950;SDS011;462;48.758;9.256;2022-09-03T07:21:52;3.50;;;3.20;;
950;SDS011;462;48.758;9.256;2022-09-03T07:29:56;5.20;;;3.53;;
950;SDS011;462;48.758;9.256;2022-09-03T07:37:59;3.70;;;3.40;;
950;SDS011;462;48.758;9.256;2022-09-03T07:46:02;4.57;;;3.50;;
950;SDS011;462;48.758;9.256;2022-09-03T07:54:06;3.63;;;3.07;;
950;SDS011;462;48.758;9.256;2022-09-03T08:02:11;3.70;;;3.33;;
950;SDS011;462;48.758;9.256;2022-09-03T08:10:13;4.27;;;3.80;;
950;SDS011;462;48.758;9.256;2022-09-03T08:18:17;4.40;;;3.83;;
950;SDS011;462;48.758;9.256;2022-09-03T08:26:21;3.50;;;3.20;;
950;SDS011;462;48.758;9.256;2022-09-03T08:34:25;3.90;;;3.57;;
950;SDS011;462;48.758;9.256;2022-09-03T08:42:31;4.40;;;4.10;;
950;SDS011;462;48.758;9.256;2022-09-03T08:50:47;4.93;;;3.70;;
950;SDS011;462;48.758;9.256;2022-09-03T08:58:55;6.67;;;3.13;;
950;SDS011;462;48.758;9.256;2022-09-03T09:07:00;4.30;;;3.50;;
950;SDS011;462;48.758;9.256;2022-09-03T09:15:09;4.07;;;3.77;;
950;SDS011;462;48.758;9.256;2022-09-03T09:23:17;4.13;;;3.83;;
950;SDS011;462;48.758;9.256;2022-09-03T09:31:25;3.73;;;3.43;;
950;SDS011;462;48.758;9.256;2022-09-03T09:39:31;9.13;;;4.10;;
950;SDS011;462;48.758;9.256;2022-09-03T09:47:35;4.50;;;4.10;;
950;SDS011;462;48.758;9.256;2022-09-03T09:55:53;4.97;;;4.57;;
950;SDS011;462;48.758;9.256;2022-09-03T10:12:04;6.77;;;4.43;;
950;SDS011;462;48.758;9.256;2022-09-03T10:20:14;4.77;;;4.20;;
950;SDS011;462;48.758;9.256;2022-09-03T10:28:36;4.53;;;4.23;;
950;SDS011;462;48.758;9.256;2022-09-03T10:36:42;6.00;;;3.90;;
950;SDS011;462;48.758;9.256;2022-09-03T10:44:55;4.60;;;4.30;;
950;SDS011;462;48.758;9.256;2022-09-03T10:53:06;4.77;;;4.37;;
950;SDS011;462;48.758;9.256;2022-09-03T11:01:17;5.30;;;4.80;;
950;SDS011;462;48.758;9.256;2022-09-03T11:09:25;4.10;;;3.80;;
950;SDS011;462;48.758;9.256;2022-09-03T11:17:35;4.67;;;4.23;;
950;SDS011;462;48.758;9.256;2022-09-03T11:25:40;5.27;;;4.73;;
950;SDS011;462;48.758;9.256;2022-09-03T11:33:46;4.10;;;3.80;;
950;SDS011;462;48.758;9.256;2022-09-03T11:41:55;5.00;;;4.60;;
950;SDS011;462;48.758;9.256;2022-09-03T11:50:07;4.73;;;4.43;;
950;SDS011;462;48.758;9.256;2022-09-03T11:58:22;4.40;;;4.00;;
950;SDS011;462;48.758;9.256;2022-09-03T12:06:39;5.07;;;4.40;;
950;SDS011;462;48.758;9.256;2022-09-03T12:14:52;4.67;;;4.37;;
950;SDS011;462;48.758;9.256;2022-09-03T12:22:58;7.80;;;7.10;;
950;SDS011;462;48.758;9.256;2022-09-03T12:31:06;2.63;;;1.93;;
950;SDS011;462;48.758;9.256;2022-09-03T12:39:22;2.00;;;1.83;;
950;SDS011;462;48.758;9.256;2022-09-03T12:47:25;2.00;;;1.70;;
950;SDS011;462;48.758;9.256;2022-09-03T12:55:31;4.13;;;1.90;;
950;SDS011;462;48.758;9.256;2022-09-03T13:03:40;2.53;;;2.23;;
950;SDS011;462;48.758;9.256;2022-09-03T13:11:47;3.60;;;2.50;;
950;SDS011;462;48.758;9.256;2022-09-03T13:19:57;3.53;;;2.17;;
950;SDS011;462;48.758;9.256;2022-09-03T13:28:15;6.63;;;2.70;;
950;SDS011;462;48.758;9.256;2022-09-03T13:36:27;3.23;;;2.27;;
950;SDS011;462;48.758;9.256;2022-09-03T13:44:37;4.73;;;2.70;;
950;SDS011;462;48.758;9.256;2022-09-03T13:52:44;2.97;;;2.30;;
950;SDS011;462;48.758;9.256;2022-09-03T14:00:53;8.73;;;2.57;;
950;SDS011;462;48.758;9.256;2022-09-03T14:09:11;3.43;;;1.73;;
950;SDS011;462;48.758;9.256;2022-09-03T14:17:18;3.03;;;2.20;;
950;SDS011;462;48.758;9.256;2022-09-03T14:25:29;2.43;;;2.23;;
950;SDS011;462;48.758;9.256;2022-09-03T14:33:35;2.10;;;1.87;;
950;SDS011;462;48.758;9.256;2022-09-03T14:41:48;3.33;;;1.97;;
950;SDS011;462;48.758;9.256;2022-09-03T14:50:12;3.97;;;2.03;;
950;SDS011;462;48.758;9.256;2022-09-03T14:58:29;3.10;;;2.10;;
950;SDS011;462;48.758;9.256;2022-09-03T15:06:42;1.73;;;1.27;;
950;SDS011;462;48.758;9.256;2022-09-03T15:14:52;1.17;;;0.90;;
950;SDS011;462;48.758;9.256;2022-09-03T15:31:20;1.70;;;1.40;;
950;SDS011;462;48.758;9.256;2022-09-03T15:39:29;1.83;;;1.10;;
950;SDS011;462;48.758;9.256;2022-09-03T15:47:35;2.57;;;1.00;;
950;SDS011;462;48.758;9.256;2022-09-03T15:55:45;2.43;;;1.40;;
950;SDS011;462;48.758;9.256;2022-09-03T16:03:55;1.23;;;1.13;;
950;SDS011;462;48.758;9.256;2022-09-03T16:12:13;1.60;;;1.50;;
950;SDS011;462;48.758;9.256;2022-09-03T16:20:21;1.70;;;1.30;;
950;SDS011;462;48.758;9.256;2022-09-03T16:28:27;2.70;;;1.53;;
950;SDS011;462;48.758;9.256;2022-09-03T16:36:36;2.30;;;2.10;;
950;SDS011;462;48.758;9.256;2022-09-03T16:44:53;2.80;;;2.00;;
950;SDS011;462;48.758;9.256;2022-09-03T16:53:06;4.43;;;4.03;;
950;SDS011;462;48.758;9.256;2022-09-03T17:01:15;4.20;;;3.80;;
950;SDS011;462;48.758;9.256;2022-09-03T17:09:39;3.80;;;3.20;;
950;SDS011;462;48.758;9.256;2022-09-03T17:17:55;3.33;;;2.60;;
950;SDS011;462;48.758;9.256;2022-09-03T17:26:16;4.60;;;4.00;;
950;SDS011;462;48.758;9.256;2022-09-03T17:34:31;4.83;;;4.43;;
950;SDS011;462;48.758;9.256;2022-09-03T17:42:41;4.73;;;3.00;;
950;SDS011;462;48.758;9.256;2022-09-03T17:50:52;3.70;;;2.73;;
950;SDS011;462;48.758;9.256;2022-09-03T17:59:01;3.17;;;2.90;;
950;SDS011;462;48.758;9.256;2022-09-03T18:07:09;4.30;;;4.00;;
950;SDS011;462;48.758;9.256;2022-09-03T18:15:17;5.87;;;4.40;;
950;SDS011;462;48.758;9.256;2022-09-03T18:23:24;4.67;;;4.27;;
950;SDS011;462;48.758;9.256;2022-09-03T18:31:48;5.83;;;3.80;;
950;SDS011;462;48.758;9.256;2022-09-03T18:40:10;6.40;;;5.80;;
950;SDS011;462;48.758;9.256;2022-09-03T18:48:33;11.40;;;6.60;;
950;SDS011;462;48.758;9.256;2022-09-03T18:56:58;4.03;;;3.37;;
950;SDS011;462;48.758;9.256;2022-09-03T19:05:22;5.27;;;4.80;;
950;SDS011;462;48.758;9.256;2022-09-03T19:13:47;3.93;;;3.53;;
950;SDS011;462;48.758;9.256;2022-09-03T19:22:08;5.50;;;4.10;;
950;SDS011;462;48.758;9.256;2022-09-03T19:30:31;4.20;;;3.90;;
950;SDS011;462;48.758;9.256;2022-09-03T19:38:59;4.07;;;3.70;;
950;SDS011;462;48.758;9.256;2022-09-03T19:47:29;3.50;;;3.20;;
950;SDS011;462;48.758;9.256;2022-09-03T19:55:56;4.90;;;4.50;;
950;SDS011;462;48.758;9.256;2022-09-03T20:04:19;4.73;;;4.33;;
950;SDS011;462;48.758;9.256;2022-09-03T20:12:42;3.70;;;3.40;;
950;SDS011;462;48.758;9.256;2022-09-03T20:20:50;4.97;;;3.90;;
950;SDS011;462;48.758;9.256;2022-09-03T20:29:02;4.70;;;4.30;;
950;SDS011;462;48.758;9.256;2022-09-03T20:37:27;3.90;;;3.57;;
950;SDS011;462;48.758;9.256;2022-09-03T20:45:36;3.93;;;3.60;;
950;SDS011;462;48.758;9.256;2022-09-03T20:53:58;4.43;;;3.50;;
950;SDS011;462;48.758;9.256;2022-09-03T21:02:09;4.90;;;4.40;;
950;SDS011;462;48.758;9.256;2022-09-03T21:10:22;5.67;;;3.20;;
950;SDS011;462;48.758;9.256;2022-09-03T21:18:32;7.33;;;6.63;;
950;SDS011;462;48.758;9.256;2022-09-03T21:26:40;6.40;;;4.47;;
950;SDS011;462;48.758;9.256;2022-09-03T21:34:48;4.57;;;4.17;;
950;SDS011;462;48.758;9.256;2022-09-03T21:42:56;3.57;;;3.27;;
950;SDS011;462;48.758;9.256;2022-09-03T21:51:05;4.67;;;4.00;;
950;SDS011;462;48.758;9.256;2022-09-03T21:59:13;4.20;;;3.83;;
950;SDS011;462;48.758;9.256;2022-09-03T22:07:36;4.40;;;3.83;;
950;SDS011;462;48.758;9.256;2022-09-03T22:15:47;4.37;;;3.97;;
950;SDS011;462;48.758;9.256;2022-09-03T22:23:54;11.40;;;9.77;;
950;SDS011;462;48.758;9.256;2022-09-03T22:32:12;8.37;;;7.53;;
950;SDS011;462;48.758;9.256;2022-09-03T22:40:24;7.43;;;3.27;;
950;SDS011;462;48.758;9.256;2022-09-03T22:48:38;4.27;;;3.40;;
950;SDS011;462;48.758;9.256;2022-09-03T22:56:50;4.87;;;3.90;;
950;SDS011;462;48.758;9.256;2022-09-03T23:04:56;3.83;;;3.43;;
950;SDS011;462;48.758;9.256;2022-09-03T23:13:05;5.40;;;3.70;;
950;SDS011;462;48.758;9.256;2022-09-03T23:21:14;3.47;;;3.07;;
950;SDS011;462;48.758;9.256;2022-09-03T23:29:24;5.30;;;2.90;;
950;SDS011;462;48.758;9.256;2022-09-03T23:37:32;7.27;;;3.30;;
950;SDS011;462;48.758;9.256;2022-09-03T23:45:45;5.43;;;3.70;;
950;SDS011;462;48.758;9.256;2022-09-03T23:53:56;3.20;;;2.90;;
